Time;durP1;ratioP1;P1;durP2;ratioP2;P2;SDS_P1;SDS_P2;PMS_P1;PMS_P2;Temp;Humidity;BMP_temperature;BMP_pressure;BME280_temperature;BME280_humidity;BME280_pressure;Samples;Min_cycle;Max_cycle;Signal;HPM_P1;HPM_P2
2020/12/21 00:01:52;;;;;;;727.88;38.97;;;6.60;99.90;;;;;;10336814;28;20089;-65
2020/12/21 00:06:58;;;;;;;804.58;34.95;;;6.40;99.90;;;;;;10361025;28;20058;-65
2020/12/21 00:11:59;;;;;;;454.42;24.02;;;6.30;99.90;;;;;;10349206;28;20101;-65
2020/12/21 00:17:01;;;;;;;389.08;22.08;;;6.30;99.90;;;;;;10358218;28;20387;-64
2020/12/21 00:22:03;;;;;;;511.75;21.52;;;6.20;99.90;;;;;;10339876;28;20453;-64
2020/12/21 00:27:04;;;;;;;912.92;30.80;;;6.20;99.90;;;;;;10373869;28;20054;-65
2020/12/21 00:32:06;;;;;;;911.45;32.80;;;6.10;99.90;;;;;;10340550;28;20064;-65
2020/12/21 00:37:07;;;;;;;906.03;34.63;;;6.00;99.90;;;;;;10342902;28;20096;-65
2020/12/21 00:42:09;;;;;;;803.72;28.67;;;6.00;99.90;;;;;;10370899;28;20451;-65
2020/12/21 00:47:11;;;;;;;811.75;31.83;;;6.00;99.90;;;;;;10334962;28;20092;-65
2020/12/21 00:52:12;;;;;;;595.33;22.98;;;5.90;99.90;;;;;;10336907;28;20201;-65
2020/12/21 00:57:13;;;;;;;569.45;21.65;;;5.80;99.90;;;;;;10335474;28;20078;-65
2020/12/21 01:02:16;;;;;;;631.08;21.95;;;5.70;99.90;;;;;;10349584;28;20129;-64
2020/12/21 01:07:17;;;;;;;573.90;23.15;;;5.70;99.90;;;;;;10335527;28;20057;-65
2020/12/21 01:12:19;;;;;;;910.85;31.02;;;5.70;99.90;;;;;;10346318;28;20517;-65
2020/12/21 01:17:20;;;;;;;826.08;30.75;;;5.60;99.90;;;;;;10355435;28;20065;-65
2020/12/21 01:22:22;;;;;;;642.90;22.20;;;5.60;99.90;;;;;;10353714;28;20157;-65
2020/12/21 01:27:23;;;;;;;693.13;29.27;;;5.80;99.90;;;;;;10367286;28;20085;-64
2020/12/21 01:32:24;;;;;;;709.72;32.42;;;5.40;99.90;;;;;;10356128;28;20141;-65
2020/12/21 01:37:26;;;;;;;512.40;24.77;;;5.30;99.90;;;;;;10351561;28;20133;-65
2020/12/21 01:42:27;;;;;;;457.65;18.70;;;5.30;99.90;;;;;;10334347;28;20129;-65
2020/12/21 01:47:29;;;;;;;528.72;27.55;;;5.40;99.90;;;;;;10337133;28;20050;-65
2020/12/21 01:52:31;;;;;;;478.77;19.02;;;5.50;99.90;;;;;;10336078;28;20121;-65
2020/12/21 01:57:32;;;;;;;387.35;16.15;;;5.60;99.90;;;;;;10363783;28;20089;-65
2020/12/21 02:02:34;;;;;;;316.75;12.48;;;5.50;99.90;;;;;;10368517;28;20088;-65
2020/12/21 02:07:36;;;;;;;300.75;15.18;;;5.20;99.90;;;;;;10371189;28;20050;-65
2020/12/21 02:12:38;;;;;;;377.40;21.35;;;5.10;99.90;;;;;;10367045;28;20512;-65
2020/12/21 02:17:40;;;;;;;550.30;25.67;;;5.20;99.90;;;;;;10367162;28;20052;-65
2020/12/21 02:22:41;;;;;;;324.17;13.02;;;5.40;99.90;;;;;;10370273;28;20160;-64
2020/12/21 02:27:43;;;;;;;528.65;20.90;;;5.30;99.90;;;;;;10367169;28;20128;-65
2020/12/21 02:32:45;;;;;;;537.17;20.92;;;5.20;99.90;;;;;;10380880;28;20093;-64
2020/12/21 02:37:46;;;;;;;735.40;34.13;;;5.30;99.90;;;;;;10367637;28;20054;-65
2020/12/21 02:42:47;;;;;;;506.50;24.10;;;5.40;99.90;;;;;;10382707;28;20367;-65
2020/12/21 02:47:49;;;;;;;447.48;18.77;;;5.40;99.90;;;;;;10361152;28;20525;-65
2020/12/21 02:52:50;;;;;;;703.17;36.20;;;5.30;99.90;;;;;;10352290;28;20125;-65
2020/12/21 02:57:52;;;;;;;511.48;23.70;;;5.20;99.90;;;;;;10367405;28;20128;-64
2020/12/21 03:02:53;;;;;;;392.10;16.48;;;5.10;99.90;;;;;;10350503;28;20126;-64
2020/12/21 03:07:54;;;;;;;575.65;25.08;;;5.10;99.90;;;;;;10331879;28;20137;-65
2020/12/21 03:12:56;;;;;;;480.17;20.20;;;4.80;99.90;;;;;;10348317;28;20376;-65
2020/12/21 03:17:57;;;;;;;485.52;21.40;;;4.80;99.90;;;;;;10368057;28;20103;-65
2020/12/21 03:22:59;;;;;;;458.27;19.05;;;4.90;99.90;;;;;;10352764;28;20051;-64
2020/12/21 03:28:00;;;;;;;439.50;20.45;;;5.00;99.90;;;;;;10352265;28;20498;-65
2020/12/21 03:33:03;;;;;;;379.40;16.85;;;5.10;99.90;;;;;;10358720;28;20055;-65
2020/12/21 03:38:04;;;;;;;400.73;19.35;;;5.00;99.90;;;;;;10351530;28;20466;-65
2020/12/21 03:43:05;;;;;;;553.75;20.00;;;5.00;99.90;;;;;;10347096;28;20142;-65
2020/12/21 03:48:07;;;;;;;414.27;18.75;;;5.00;99.90;;;;;;10349587;28;20608;-65
2020/12/21 03:53:08;;;;;;;508.55;27.58;;;4.90;99.90;;;;;;10347590;28;20133;-65
2020/12/21 03:58:10;;;;;;;420.63;22.20;;;4.80;99.90;;;;;;10367401;28;20142;-65
2020/12/21 04:03:11;;;;;;;406.35;22.27;;;5.00;99.90;;;;;;10329333;28;20056;-65
2020/12/21 04:08:21;;;;;;;293.95;15.60;;;5.10;99.90;;;;;;10367836;28;20054;-65
2020/12/21 04:13:23;;;;;;;255.52;16.52;;;5.10;99.90;;;;;;10352689;28;20073;-64
2020/12/21 04:18:37;;;;;;;412.90;24.83;;;4.90;99.90;;;;;;10367054;28;20125;-65
2020/12/21 04:23:40;;;;;;;189.80;13.52;;;4.90;99.90;;;;;;10348371;28;20205;-65
2020/12/21 04:28:41;;;;;;;316.35;19.52;;;4.90;99.90;;;;;;10335787;28;20056;-65
2020/12/21 04:33:43;;;;;;;280.35;15.90;;;5.10;99.90;;;;;;10366287;28;20078;-64
2020/12/21 04:38:45;;;;;;;368.20;17.10;;;5.00;99.90;;;;;;10341547;28;20104;-65
2020/12/21 04:43:47;;;;;;;453.65;20.58;;;5.00;99.90;;;;;;10375436;28;20057;-64
2020/12/21 04:48:49;;;;;;;421.30;23.20;;;5.00;99.90;;;;;;10363383;28;20487;-65
2020/12/21 04:53:50;;;;;;;186.75;10.98;;;5.00;99.90;;;;;;10347428;28;20093;-64
2020/12/21 04:58:52;;;;;;;242.27;14.45;;;5.00;99.90;;;;;;10364375;28;20096;-64
2020/12/21 05:03:53;;;;;;;309.58;18.40;;;4.90;99.90;;;;;;10345491;28;20042;-65
2020/12/21 05:09:08;;;;;;;180.48;12.85;;;4.90;99.90;;;;;;10364654;28;20058;-65
2020/12/21 05:14:12;;;;;;;171.48;12.55;;;4.90;99.90;;;;;;10345995;28;20550;-64
2020/12/21 05:19:22;;;;;;;307.45;18.08;;;5.00;99.90;;;;;;10363190;28;20054;-65
2020/12/21 05:24:23;;;;;;;245.77;14.10;;;5.10;99.90;;;;;;10347110;28;20152;-65
2020/12/21 05:29:28;;;;;;;303.85;20.17;;;5.00;99.90;;;;;;10361280;28;20038;-65
2020/12/21 05:34:29;;;;;;;337.73;21.40;;;4.90;99.90;;;;;;10353687;28;20545;-65
2020/12/21 05:39:31;;;;;;;360.90;25.45;;;4.90;99.90;;;;;;10361434;28;20468;-65
2020/12/21 05:44:34;;;;;;;494.27;28.50;;;5.00;99.90;;;;;;10356975;28;20073;-65
2020/12/21 05:49:51;;;;;;;459.98;19.10;;;4.80;99.90;;;;;;10356671;28;20052;-65
2020/12/21 05:54:54;;;;;;;578.63;24.33;;;5.00;99.90;;;;;;10356864;28;20054;-65
2020/12/21 05:59:58;;;;;;;651.90;26.30;;;4.90;99.90;;;;;;10360752;28;20042;-65
2020/12/21 06:05:05;;;;;;;704.88;32.92;;;5.00;99.90;;;;;;10352314;28;20049;-65
2020/12/21 06:10:08;;;;;;;487.30;21.08;;;5.10;99.90;;;;;;10357258;28;20417;-65
2020/12/21 06:15:14;;;;;;;529.80;30.17;;;5.10;99.90;;;;;;10351298;28;20516;-65
2020/12/21 06:20:16;;;;;;;490.27;28.33;;;4.90;99.90;;;;;;10361211;28;20049;-65
2020/12/21 06:25:24;;;;;;;429.90;20.95;;;4.80;99.90;;;;;;10366574;28;20053;-65
2020/12/21 06:30:30;;;;;;;466.67;27.15;;;5.00;99.90;;;;;;10360802;28;20105;-65
2020/12/21 06:35:42;;;;;;;470.73;17.83;;;5.00;99.90;;;;;;10353229;28;20061;-64
2020/12/21 06:40:44;;;;;;;520.22;26.27;;;5.10;99.90;;;;;;10367259;28;20100;-65
2020/12/21 06:45:45;;;;;;;392.42;21.77;;;5.10;99.90;;;;;;10361352;28;20145;-65
2020/12/21 06:51:13;;;;;;;383.87;17.63;;;5.00;99.90;;;;;;10364570;28;20132;-65
2020/12/21 06:56:16;;;;;;;592.40;27.00;;;4.90;99.90;;;;;;10358833;28;20050;-65
2020/12/21 07:01:19;;;;;;;516.72;26.45;;;4.90;99.90;;;;;;10350772;28;20455;-65
2020/12/21 07:06:21;;;;;;;320.52;23.95;;;5.00;99.90;;;;;;10330619;28;20468;-65
2020/12/21 07:11:25;;;;;;;527.25;40.13;;;5.00;99.90;;;;;;10356872;28;20406;-65
2020/12/21 07:16:27;;;;;;;573.88;28.23;;;5.00;99.90;;;;;;10361982;28;20129;-65
2020/12/21 07:21:30;;;;;;;372.83;17.25;;;5.00;99.90;;;;;;10364808;28;20077;-64
2020/12/21 07:26:31;;;;;;;382.83;19.02;;;4.90;99.90;;;;;;10362443;28;20600;-65
2020/12/21 07:31:33;;;;;;;338.27;17.05;;;4.90;99.90;;;;;;10363971;28;20070;-65
2020/12/21 07:36:35;;;;;;;464.65;23.38;;;4.90;99.90;;;;;;10362555;28;20069;-64
2020/12/21 07:41:39;;;;;;;383.00;22.45;;;5.00;99.90;;;;;;10364027;28;20417;-65
2020/12/21 07:47:04;;;;;;;289.38;15.80;;;4.90;99.90;;;;;;10369198;28;20089;-65
2020/12/21 07:52:07;;;;;;;313.45;17.27;;;4.90;99.90;;;;;;10364413;28;20073;-65
2020/12/21 07:57:10;;;;;;;511.10;24.02;;;4.80;99.90;;;;;;10368534;28;20137;-65
2020/12/21 08:02:24;;;;;;;490.33;24.75;;;4.80;99.90;;;;;;10347319;28;20050;-65
2020/12/21 08:07:29;;;;;;;371.35;18.05;;;4.90;99.90;;;;;;10358245;28;20149;-65
2020/12/21 08:12:33;;;;;;;583.95;24.42;;;4.90;99.90;;;;;;10338145;28;20103;-65
2020/12/21 08:17:34;;;;;;;415.05;22.05;;;4.80;99.90;;;;;;10380118;28;20552;-65
2020/12/21 08:22:37;;;;;;;497.67;24.25;;;4.80;99.90;;;;;;10358893;28;20457;-65
2020/12/21 08:27:49;;;;;;;403.77;23.65;;;4.90;99.90;;;;;;10365831;28;20483;-65
2020/12/21 08:32:52;;;;;;;563.20;24.33;;;5.00;99.90;;;;;;10369876;28;20382;-64
2020/12/21 08:38:07;;;;;;;451.80;22.20;;;5.10;99.90;;;;;;10342963;28;20380;-65
2020/12/21 08:43:08;;;;;;;271.80;15.60;;;5.00;99.90;;;;;;10371038;28;20077;-64
2020/12/21 08:48:10;;;;;;;516.83;25.27;;;5.10;99.90;;;;;;10350212;28;20084;-65
2020/12/21 08:53:11;;;;;;;538.80;25.50;;;5.30;99.90;;;;;;10356586;28;20124;-65
2020/12/21 08:58:13;;;;;;;525.55;26.95;;;5.20;99.90;;;;;;10336765;28;20082;-65
2020/12/21 09:03:14;;;;;;;348.42;18.88;;;5.30;99.90;;;;;;10335773;28;20046;-65
2020/12/21 09:08:16;;;;;;;788.35;37.33;;;5.30;99.90;;;;;;10358326;28;20140;-65
2020/12/21 09:13:17;;;;;;;495.73;27.40;;;5.30;99.90;;;;;;10352401;28;20396;-65
2020/12/21 09:18:19;;;;;;;304.98;16.55;;;5.30;99.90;;;;;;10352100;28;20136;-65
2020/12/21 09:23:20;;;;;;;180.18;14.68;;;5.40;99.90;;;;;;10363707;28;20129;-65
2020/12/21 09:28:22;;;;;;;618.50;37.55;;;5.50;99.90;;;;;;10363807;28;20137;-65
2020/12/21 09:33:23;;;;;;;402.77;30.55;;;5.60;99.90;;;;;;10353052;28;20046;-65
2020/12/21 09:38:25;;;;;;;228.82;24.05;;;5.60;99.90;;;;;;10365304;28;20057;-65
2020/12/21 09:43:27;;;;;;;313.25;22.17;;;5.80;99.90;;;;;;10367646;28;20046;-65
2020/12/21 09:48:28;;;;;;;637.33;37.35;;;5.90;99.90;;;;;;10371385;28;20125;-65
2020/12/21 09:53:30;;;;;;;689.58;36.05;;;5.90;99.90;;;;;;10367869;28;20073;-65
2020/12/21 09:58:31;;;;;;;261.42;21.73;;;6.10;99.90;;;;;;10334187;28;20121;-65
2020/12/21 10:03:33;;;;;;;309.88;28.02;;;6.20;99.90;;;;;;10369335;28;20438;-65
2020/12/21 10:08:35;;;;;;;254.48;23.60;;;6.30;99.90;;;;;;10368698;28;20133;-71
2020/12/21 10:13:37;;;;;;;384.60;25.05;;;6.40;99.90;;;;;;10333392;28;20051;-71
2020/12/21 10:18:40;;;;;;;163.38;23.52;;;6.40;99.90;;;;;;10380732;28;20057;-71
2020/12/21 10:23:41;;;;;;;111.07;19.65;;;6.40;99.90;;;;;;10369873;28;20042;-71
2020/12/21 10:28:43;;;;;;;346.40;29.38;;;6.60;99.90;;;;;;10334085;28;20085;-71
2020/12/21 10:33:44;;;;;;;356.52;38.47;;;6.60;99.90;;;;;;10337997;28;20054;-71
2020/12/21 10:38:47;;;;;;;55.95;19.98;;;6.50;99.90;;;;;;10369427;28;20049;-71
2020/12/21 10:43:51;;;;;;;71.55;22.75;;;6.40;99.90;;;;;;10366806;28;20092;-71
2020/12/21 10:48:53;;;;;;;22.38;16.42;;;6.60;99.90;;;;;;10355538;28;20108;-71
2020/12/21 10:53:55;;;;;;;25.98;15.77;;;6.70;99.90;;;;;;10362100;28;20562;-71
2020/12/21 10:58:56;;;;;;;28.25;19.20;;;6.80;99.90;;;;;;10367407;28;20478;-71
2020/12/21 11:03:58;;;;;;;23.13;17.10;;;6.70;99.90;;;;;;10365884;28;20104;-71
2020/12/21 11:08:59;;;;;;;18.65;14.27;;;6.80;99.90;;;;;;10331787;28;20483;-71
2020/12/21 11:14:03;;;;;;;27.67;17.88;;;6.90;99.90;;;;;;10328474;28;20125;-71
2020/12/21 11:19:05;;;;;;;29.85;19.10;;;6.90;99.90;;;;;;10366681;28;20096;-71
2020/12/21 11:24:06;;;;;;;23.88;17.52;;;7.00;99.90;;;;;;10368677;28;20073;-71
2020/12/21 11:29:08;;;;;;;38.30;21.15;;;7.10;99.90;;;;;;10349923;28;20104;-71
2020/12/21 11:34:10;;;;;;;39.35;22.23;;;7.20;99.90;;;;;;10333395;28;20068;-71
2020/12/21 11:39:12;;;;;;;23.60;17.20;;;7.40;99.90;;;;;;10361259;28;20060;-71
2020/12/21 11:44:13;;;;;;;31.85;22.55;;;7.60;99.90;;;;;;10371436;28;20137;-71
2020/12/21 11:49:16;;;;;;;22.67;16.70;;;7.80;99.90;;;;;;10366572;28;20193;-71
2020/12/21 11:54:17;;;;;;;25.73;17.90;;;7.90;99.90;;;;;;10352878;28;20453;-71
2020/12/21 11:59:19;;;;;;;31.95;20.33;;;7.90;99.90;;;;;;10375159;28;20054;-71
2020/12/21 12:04:25;;;;;;;27.63;20.42;;;8.10;99.90;;;;;;10351072;28;20089;-71
2020/12/21 12:09:28;;;;;;;20.33;15.48;;;8.20;99.90;;;;;;10363416;28;20128;-71
2020/12/21 12:14:29;;;;;;;25.25;17.83;;;8.10;99.90;;;;;;10390360;28;20057;-71
2020/12/21 12:19:31;;;;;;;20.70;16.13;;;8.20;99.90;;;;;;10344295;28;20043;-71
2020/12/21 12:24:32;;;;;;;21.77;16.13;;;8.30;99.90;;;;;;10359259;28;20133;-71
2020/12/21 12:29:34;;;;;;;20.65;14.85;;;8.30;99.90;;;;;;10342528;28;20133;-71
2020/12/21 12:34:35;;;;;;;26.33;16.50;;;8.50;99.90;;;;;;10335218;28;20096;-71
2020/12/21 12:39:37;;;;;;;21.17;15.07;;;8.80;99.90;;;;;;10342412;28;20049;-71
2020/12/21 12:44:38;;;;;;;19.27;13.25;;;8.90;99.90;;;;;;10373647;28;20457;-71
2020/12/21 12:49:39;;;;;;;21.15;16.02;;;9.10;99.90;;;;;;10348374;28;20076;-71
2020/12/21 12:54:41;;;;;;;13.00;9.10;;;9.30;99.90;;;;;;10368014;28;20507;-71
2020/12/21 12:59:42;;;;;;;16.77;12.57;;;9.50;99.90;;;;;;10367079;28;20053;-71
2020/12/21 13:04:59;;;;;;;10.32;7.75;;;9.80;99.90;;;;;;10366923;28;20145;-71
2020/12/21 13:10:00;;;;;;;7.82;4.10;;;9.90;99.90;;;;;;10363265;28;20089;-71
2020/12/21 13:15:02;;;;;;;11.65;6.82;;;10.00;99.90;;;;;;10380428;28;20487;-71
2020/12/21 13:20:07;;;;;;;7.07;3.78;;;10.10;99.90;;;;;;10359467;28;20518;-71
2020/12/21 13:25:09;;;;;;;12.73;3.80;;;10.10;99.90;;;;;;10347480;28;20046;-71
2020/12/21 13:30:14;;;;;;;8.02;3.65;;;10.10;99.90;;;;;;10363005;28;20558;-72
2020/12/21 13:35:21;;;;;;;6.57;2.55;;;10.00;99.90;;;;;;10365752;28;20062;-71
2020/12/21 13:40:22;;;;;;;6.63;2.60;;;10.10;99.90;;;;;;10355194;28;20053;-71
2020/12/21 13:45:24;;;;;;;5.70;2.40;;;10.10;99.90;;;;;;10367287;28;20147;-71
2020/12/21 13:50:25;;;;;;;11.32;5.90;;;10.10;99.90;;;;;;10369093;28;20076;-71
2020/12/21 13:55:27;;;;;;;6.13;2.53;;;10.20;99.90;;;;;;10369175;28;20080;-71
2020/12/21 14:00:28;;;;;;;8.88;2.80;;;10.10;99.90;;;;;;10350772;28;20566;-71
2020/12/21 14:05:29;;;;;;;12.05;4.13;;;10.10;99.90;;;;;;10345046;28;20053;-71
2020/12/21 14:10:32;;;;;;;11.90;5.47;;;10.00;99.90;;;;;;10350091;28;20054;-71
2020/12/21 14:15:33;;;;;;;13.90;5.70;;;9.90;99.90;;;;;;10357857;28;20080;-71
2020/12/21 14:20:35;;;;;;;18.33;7.10;;;9.70;99.90;;;;;;10369429;28;20108;-71
2020/12/21 14:25:36;;;;;;;14.68;6.43;;;9.70;99.90;;;;;;10342946;28;20580;-71
2020/12/21 14:30:38;;;;;;;19.08;7.65;;;9.70;99.90;;;;;;10337943;28;20074;-70
2020/12/21 14:35:39;;;;;;;13.13;6.00;;;9.70;99.90;;;;;;10368660;28;20089;-70
2020/12/21 14:40:41;;;;;;;9.90;6.38;;;9.60;99.90;;;;;;10359955;28;20070;-71
2020/12/21 14:45:43;;;;;;;13.40;7.10;;;9.60;99.90;;;;;;10344282;28;20061;-71
2020/12/21 14:50:44;;;;;;;17.35;8.52;;;9.60;99.90;;;;;;10370328;28;20144;-72
2020/12/21 14:55:47;;;;;;;17.83;8.93;;;9.50;99.90;;;;;;10370544;28;20540;-71
2020/12/21 15:00:49;;;;;;;17.17;11.02;;;9.60;99.90;;;;;;10370074;28;20081;-72
2020/12/21 15:05:50;;;;;;;17.52;9.63;;;9.60;99.90;;;;;;10384661;28;20509;-72
2020/12/21 15:10:52;;;;;;;13.43;7.57;;;9.60;99.90;;;;;;10370089;28;20050;-72
2020/12/21 15:16:04;;;;;;;13.20;7.40;;;9.50;99.90;;;;;;10359175;28;20046;-71
2020/12/21 15:21:08;;;;;;;12.68;7.38;;;9.40;99.90;;;;;;10370034;28;20053;-72
2020/12/21 15:26:12;;;;;;;14.32;8.48;;;9.30;99.90;;;;;;10348310;28;20108;-72
2020/12/21 15:31:13;;;;;;;11.57;8.45;;;9.30;99.90;;;;;;10341651;28;20082;-72
2020/12/21 15:36:16;;;;;;;15.05;9.80;;;9.30;99.90;;;;;;10328940;28;20061;-66
2020/12/21 15:41:18;;;;;;;18.52;11.75;;;9.30;99.90;;;;;;10353910;28;20062;-66
2020/12/21 15:46:19;;;;;;;16.90;11.05;;;9.30;99.90;;;;;;10345650;28;20459;-66
2020/12/21 15:51:24;;;;;;;16.88;11.32;;;9.20;99.90;;;;;;10353683;28;20164;-66
2020/12/21 15:56:25;;;;;;;16.17;11.07;;;9.10;99.90;;;;;;10361159;28;20078;-66
2020/12/21 16:01:27;;;;;;;13.68;10.32;;;9.10;99.90;;;;;;10329400;28;20089;-66
2020/12/21 16:06:28;;;;;;;15.70;11.50;;;9.10;99.90;;;;;;10329572;28;20128;-66
2020/12/21 16:11:36;;;;;;;15.10;11.00;;;9.10;99.90;;;;;;10369787;28;20070;-66
2020/12/21 16:16:37;;;;;;;13.65;10.95;;;9.10;99.90;;;;;;10366827;28;20053;-66
2020/12/21 16:21:39;;;;;;;14.98;10.13;;;9.10;99.90;;;;;;10367430;28;20049;-66
2020/12/21 16:26:43;;;;;;;17.67;12.77;;;9.20;99.90;;;;;;10342075;28;20054;-66
2020/12/21 16:31:51;;;;;;;12.02;9.63;;;9.20;99.90;;;;;;10334985;28;20105;-66
2020/12/21 16:36:53;;;;;;;12.45;8.60;;;9.20;99.90;;;;;;10372329;28;20077;-66
2020/12/21 16:41:59;;;;;;;15.93;10.90;;;9.30;99.90;;;;;;10370504;28;20069;-66
2020/12/21 16:47:01;;;;;;;10.27;8.05;;;9.30;99.90;;;;;;10360981;28;20057;-66
2020/12/21 16:52:04;;;;;;;12.48;8.07;;;9.40;99.90;;;;;;10335317;28;20051;-66
2020/12/21 16:57:05;;;;;;;19.45;10.52;;;9.40;99.90;;;;;;10349485;28;20533;-67
2020/12/21 17:02:07;;;;;;;11.13;7.95;;;9.40;99.90;;;;;;10364291;28;20137;-66
2020/12/21 17:07:09;;;;;;;11.02;7.38;;;9.40;99.90;;;;;;10371890;28;20058;-67
2020/12/21 17:12:14;;;;;;;9.07;6.47;;;9.40;99.90;;;;;;10373565;28;20576;-66
2020/12/21 17:17:17;;;;;;;8.15;4.72;;;9.60;99.90;;;;;;10333554;28;20445;-66
2020/12/21 17:22:18;;;;;;;8.77;5.78;;;9.60;99.90;;;;;;10334422;28;20054;-67
2020/12/21 17:27:20;;;;;;;7.25;5.10;;;9.70;99.90;;;;;;10359374;28;20061;-66
2020/12/21 17:32:21;;;;;;;10.68;6.45;;;9.60;99.90;;;;;;10354724;28;20129;-66
2020/12/21 17:37:23;;;;;;;6.55;4.07;;;9.60;99.90;;;;;;10354770;28;20613;-66
2020/12/21 17:42:24;;;;;;;6.40;3.40;;;9.60;99.90;;;;;;10359816;28;20410;-67
2020/12/21 17:47:26;;;;;;;5.50;3.60;;;9.70;99.90;;;;;;10343056;28;20046;-67
2020/12/21 17:52:27;;;;;;;5.43;3.13;;;9.70;99.90;;;;;;10370008;28;20042;-66
2020/12/21 17:57:28;;;;;;;8.98;5.43;;;9.60;99.90;;;;;;10361451;28;20054;-66
2020/12/21 18:02:30;;;;;;;8.30;6.22;;;9.60;99.90;;;;;;10342329;28;20053;-66
2020/12/21 18:07:32;;;;;;;11.07;5.25;;;9.60;99.90;;;;;;10344160;28;20078;-67
2020/12/21 18:12:34;;;;;;;7.55;4.00;;;9.60;99.90;;;;;;10358635;28;20140;-67
2020/12/21 18:17:36;;;;;;;9.40;5.05;;;9.60;99.90;;;;;;10342266;28;20050;-66
2020/12/21 18:22:37;;;;;;;9.95;6.18;;;9.70;99.90;;;;;;10361106;28;20050;-66
2020/12/21 18:27:40;;;;;;;11.93;7.78;;;9.70;99.90;;;;;;10370372;28;20136;-67
2020/12/21 18:32:41;;;;;;;21.27;14.65;;;9.70;99.90;;;;;;10369774;28;20192;-67
2020/12/21 18:37:43;;;;;;;27.27;18.33;;;9.70;99.90;;;;;;10369715;28;20137;-67
2020/12/21 18:42:44;;;;;;;44.10;29.08;;;9.70;99.90;;;;;;10368806;28;20045;-66
2020/12/21 18:47:45;;;;;;;23.88;15.20;;;9.70;99.90;;;;;;10367944;28;20140;-66
2020/12/21 18:52:47;;;;;;;29.02;21.85;;;9.70;99.90;;;;;;10343958;28;20474;-66
2020/12/21 18:57:48;;;;;;;38.78;29.50;;;9.70;99.90;;;;;;10349775;28;20053;-66
2020/12/21 19:02:50;;;;;;;22.88;16.25;;;9.80;99.90;;;;;;10367001;28;20154;-66
2020/12/21 19:07:55;;;;;;;20.55;15.45;;;9.80;99.90;;;;;;10368334;28;20428;-67
2020/12/21 19:12:57;;;;;;;27.33;19.83;;;9.70;99.90;;;;;;10351936;28;20042;-66
2020/12/21 19:17:58;;;;;;;28.23;18.77;;;9.70;99.90;;;;;;10365399;28;20045;-66
2020/12/21 19:22:59;;;;;;;33.45;20.95;;;9.70;99.90;;;;;;10365747;28;20048;-67
2020/12/21 19:28:01;;;;;;;46.03;26.50;;;9.60;99.90;;;;;;10360445;28;20093;-66
2020/12/21 19:33:02;;;;;;;87.20;35.88;;;9.50;99.90;;;;;;10366161;28;20084;-66
2020/12/21 19:38:04;;;;;;;27.02;18.40;;;9.50;99.90;;;;;;10366550;28;20456;-66
2020/12/21 19:43:05;;;;;;;24.52;18.42;;;9.60;99.90;;;;;;10341336;28;20562;-67
2020/12/21 19:48:07;;;;;;;16.23;12.90;;;9.70;99.90;;;;;;10339187;28;20450;-66
2020/12/21 19:53:10;;;;;;;21.67;16.13;;;9.80;99.90;;;;;;10338500;28;20085;-66
2020/12/21 19:58:13;;;;;;;26.13;17.67;;;9.70;99.90;;;;;;10356701;28;20091;-66
2020/12/21 20:03:15;;;;;;;23.08;16.08;;;9.70;99.90;;;;;;10344187;28;20073;-66
2020/12/21 20:08:20;;;;;;;55.05;27.27;;;9.80;99.90;;;;;;10354908;28;20045;-66
2020/12/21 20:13:23;;;;;;;36.88;24.85;;;9.70;99.90;;;;;;10350759;28;20113;-66
2020/12/21 20:18:24;;;;;;;22.30;16.98;;;9.60;99.90;;;;;;10364011;28;20049;-66
2020/12/21 20:23:26;;;;;;;58.05;31.65;;;9.50;99.90;;;;;;10353641;28;20046;-66
2020/12/21 20:28:27;;;;;;;32.60;22.30;;;9.40;99.90;;;;;;10344525;28;20130;-66
2020/12/21 20:33:29;;;;;;;20.63;16.17;;;9.40;99.90;;;;;;10348157;28;20564;-66
2020/12/21 20:38:30;;;;;;;27.48;19.23;;;9.50;99.90;;;;;;10335989;28;20518;-66
2020/12/21 20:43:32;;;;;;;28.95;19.20;;;9.60;99.90;;;;;;10346876;28;20082;-66
2020/12/21 20:48:33;;;;;;;14.80;11.98;;;9.60;99.90;;;;;;10333763;28;20089;-67
2020/12/21 20:53:35;;;;;;;13.48;10.73;;;9.60;99.90;;;;;;10334926;28;20482;-67
2020/12/21 20:58:37;;;;;;;11.75;8.32;;;9.70;99.90;;;;;;10359389;28;20087;-67
2020/12/21 21:03:40;;;;;;;19.33;14.27;;;9.80;99.90;;;;;;10364083;28;20049;-66
2020/12/21 21:08:42;;;;;;;29.65;19.95;;;9.70;99.90;;;;;;10341922;28;20176;-67
2020/12/21 21:13:43;;;;;;;52.78;27.15;;;9.70;99.90;;;;;;10361465;28;20072;-67
2020/12/21 21:18:49;;;;;;;76.40;27.20;;;9.40;99.90;;;;;;10359134;28;20056;-67
2020/12/21 21:23:51;;;;;;;33.45;22.17;;;9.20;99.90;;;;;;10343269;28;20458;-67
2020/12/21 21:28:54;;;;;;;18.75;13.80;;;9.40;99.90;;;;;;10358147;28;20085;-66
2020/12/21 21:33:57;;;;;;;28.77;18.02;;;9.50;99.90;;;;;;10340139;28;20046;-67
2020/12/21 21:39:03;;;;;;;13.10;9.95;;;9.60;99.90;;;;;;10335614;28;20088;-66
2020/12/21 21:44:05;;;;;;;9.13;7.18;;;9.70;99.90;;;;;;10371130;28;20042;-66
2020/12/21 21:49:09;;;;;;;14.52;9.88;;;9.80;99.90;;;;;;10368482;28;20046;-67
2020/12/21 21:54:11;;;;;;;16.83;13.05;;;9.90;99.90;;;;;;10341921;28;20133;-67
2020/12/21 21:59:13;;;;;;;72.93;17.35;;;9.90;99.90;;;;;;10331103;28;20418;-67
2020/12/21 22:04:15;;;;;;;10.77;8.73;;;9.70;99.90;;;;;;10365254;28;20054;-67
2020/12/21 22:09:17;;;;;;;30.52;19.70;;;9.70;99.90;;;;;;10334479;28;20078;-66
2020/12/21 22:14:19;;;;;;;22.25;16.17;;;9.80;99.90;;;;;;10330184;28;20042;-66
2020/12/21 22:19:27;;;;;;;24.90;16.52;;;9.70;99.90;;;;;;10345505;28;20046;-66
2020/12/21 22:24:29;;;;;;;27.58;19.58;;;9.80;99.90;;;;;;10330017;28;20058;-66
2020/12/21 22:29:30;;;;;;;40.78;25.85;;;9.90;99.90;;;;;;10368607;28;20076;-67
2020/12/21 22:34:33;;;;;;;24.98;18.50;;;9.80;99.90;;;;;;10304219;28;791713;-66
2020/12/21 22:39:35;;;;;;;26.30;19.77;;;9.80;99.90;;;;;;10341413;28;20045;-67
2020/12/21 22:44:38;;;;;;;15.45;12.15;;;9.80;99.90;;;;;;10331921;28;20403;-66
2020/12/21 22:49:44;;;;;;;11.55;8.93;;;9.80;99.90;;;;;;10362510;28;20053;-66
2020/12/21 22:54:46;;;;;;;11.23;9.05;;;9.90;99.90;;;;;;10367177;28;20120;-66
2020/12/21 22:59:47;;;;;;;18.90;14.55;;;9.90;99.90;;;;;;10363011;28;20077;-66
2020/12/21 23:04:49;;;;;;;14.82;12.15;;;9.90;99.90;;;;;;10352630;28;20046;-67
2020/12/21 23:09:51;;;;;;;17.45;13.18;;;9.90;99.90;;;;;;10335723;28;20050;-66
2020/12/21 23:14:53;;;;;;;23.42;17.02;;;9.90;99.90;;;;;;10363811;28;20039;-66
2020/12/21 23:20:09;;;;;;;17.13;12.85;;;10.00;99.90;;;;;;10341083;28;20379;-67
2020/12/21 23:25:11;;;;;;;15.60;10.82;;;10.10;99.90;;;;;;10369039;28;20133;-66
2020/12/21 23:30:13;;;;;;;6.15;3.95;;;10.10;99.90;;;;;;10347497;28;20540;-67
2020/12/21 23:35:14;;;;;;;7.97;4.15;;;10.20;99.90;;;;;;10348067;28;20096;-66
2020/12/21 23:40:17;;;;;;;6.25;4.25;;;10.50;99.90;;;;;;10366856;28;20046;-67
2020/12/21 23:45:18;;;;;;;6.85;3.53;;;10.60;99.90;;;;;;10343196;28;20078;-66
2020/12/21 23:50:24;;;;;;;6.30;3.50;;;10.80;99.90;;;;;;10366839;28;20058;-67
2020/12/21 23:55:26;;;;;;;8.25;5.57;;;10.90;99.90;;;;;;10368291;28;20153;-66
